Time;durP1;ratioP1;P1;durP2;ratioP2;P2;SDS_P1;SDS_P2;PMS_P1;PMS_P2;Temp;Humidity;BMP_temperature;BMP_pressure;BME280_temperature;BME280_humidity;BME280_pressure;Samples;Min_cycle;Max_cycle;Signal;HPM_P1;HPM_P2
2022/05/26 00:01:51;;;;;;;3.75;1.00;;;;;;;16.74;40.46;100124.91;10430008;28;20175;-81
2022/05/26 00:06:53;;;;;;;3.83;1.15;;;;;;;16.64;40.54;100118.69;10431825;28;20104;-81
2022/05/26 00:11:58;;;;;;;4.43;1.00;;;;;;;16.65;40.63;100117.75;10431206;28;20064;-81
2022/05/26 00:17:01;;;;;;;3.85;1.45;;;;;;;16.66;40.50;100125.53;10430217;28;20084;-81
2022/05/26 00:22:04;;;;;;;3.42;0.88;;;;;;;16.56;40.87;100129.06;10427025;28;20053;-81
2022/05/26 00:27:07;;;;;;;2.60;1.10;;;;;;;16.56;41.00;100111.41;10431297;28;20056;-81
2022/05/26 00:32:09;;;;;;;5.30;1.08;;;;;;;16.48;41.09;100123.56;10431160;28;20508;-81
2022/05/26 00:37:11;;;;;;;2.55;0.90;;;;;;;16.51;41.44;100132.06;10431914;28;20049;-81
2022/05/26 00:42:14;;;;;;;3.38;1.00;;;;;;;16.53;41.16;100127.50;10426334;28;20071;-81
2022/05/26 00:47:20;;;;;;;3.90;1.10;;;;;;;16.48;41.50;100127.03;10428862;28;20140;-80
2022/05/26 00:52:36;;;;;;;3.85;1.02;;;;;;;16.48;41.47;100136.75;10438428;28;20135;-81
2022/05/26 00:57:43;;;;;;;3.10;1.10;;;;;;;16.39;41.92;100137.44;10438376;28;20087;-80
2022/05/26 01:03:03;;;;;;;3.72;1.13;;;;;;;16.37;42.11;100136.72;10441509;28;20741;-81
2022/05/26 01:08:22;;;;;;;2.40;1.10;;;;;;;16.37;42.56;100136.72;10444813;28;20473;-81
2022/05/26 01:13:30;;;;;;;3.75;1.13;;;;;;;16.35;42.28;100141.28;10434066;28;20103;-80
2022/05/26 01:18:50;;;;;;;2.13;0.98;;;;;;;16.36;42.29;100138.56;10437536;28;20053;-81
2022/05/26 01:24:23;;;;;;;2.58;1.00;;;;;;;16.31;42.36;100139.88;10433920;28;20140;-81
2022/05/26 01:30:00;;;;;;;2.10;0.90;;;;;;;16.25;42.78;100135.91;10437887;28;20132;-80
2022/05/26 01:35:27;;;;;;;4.13;1.00;;;;;;;16.09;42.99;100160.06;10435368;28;20554;-81
2022/05/26 01:41:06;;;;;;;2.53;0.95;;;;;;;15.87;43.56;100146.88;10438207;28;20136;-80
2022/05/26 01:46:20;;;;;;;3.45;1.02;;;;;;;15.85;44.16;100156.72;10452431;28;20645;-80
2022/05/26 01:51:38;;;;;;;2.35;1.00;;;;;;;15.71;44.21;100154.31;10431794;28;20139;-81
2022/05/26 01:57:06;;;;;;;2.80;0.90;;;;;;;15.65;44.53;100148.66;10431666;28;20072;-81
2022/05/26 02:02:18;;;;;;;3.10;1.25;;;;;;;15.59;44.94;100154.41;10436806;28;20143;-81
2022/05/26 02:07:31;;;;;;;1.13;0.80;;;;;;;15.58;45.36;100169.38;10441350;28;20135;-80
2022/05/26 02:12:40;;;;;;;2.63;0.82;;;;;;;15.56;45.55;100165.16;10441166;28;20096;-81
2022/05/26 02:17:55;;;;;;;2.47;1.00;;;;;;;15.52;45.81;100166.38;10442505;28;20130;-81
2022/05/26 02:23:08;;;;;;;5.03;1.17;;;;;;;15.50;45.93;100165.66;10440815;28;20099;-81
2022/05/26 02:28:11;;;;;;;2.90;0.80;;;;;;;15.52;45.88;100161.94;10438750;28;20049;-81
2022/05/26 02:33:16;;;;;;;3.20;0.80;;;;;;;15.38;46.34;100154.22;10437031;28;20056;-81
2022/05/26 02:38:22;;;;;;;2.63;1.05;;;;;;;15.23;46.73;100150.09;10442162;28;20130;-81
2022/05/26 02:43:28;;;;;;;2.20;0.82;;;;;;;15.07;47.45;100158.31;10441081;28;20057;-81
2022/05/26 02:49:13;;;;;;;2.67;1.10;;;;;;;14.94;47.79;100156.72;10441364;28;20137;-81
2022/05/26 02:54:29;;;;;;;3.60;1.40;;;;;;;14.98;47.44;100166.06;10441038;28;20150;-81
2022/05/26 03:00:03;;;;;;;3.72;0.68;;;;;;;14.91;48.22;100168.31;10442894;28;20048;-81
2022/05/26 03:05:15;;;;;;;3.35;0.90;;;;;;;15.06;48.03;100172.44;10430606;28;20071;-81
2022/05/26 03:10:21;;;;;;;5.18;1.10;;;;;;;15.25;47.59;100174.53;10446298;28;20044;-81
2022/05/26 03:15:23;;;;;;;3.90;1.17;;;;;;;15.33;47.36;100174.78;10435195;28;20157;-81
2022/05/26 03:20:25;;;;;;;1.17;0.90;;;;;;;15.29;47.27;100175.97;10434379;28;20052;-81
2022/05/26 03:25:27;;;;;;;1.75;0.90;;;;;;;15.19;47.79;100177.63;10434629;28;20053;-81
2022/05/26 03:30:29;;;;;;;3.72;0.90;;;;;;;15.15;47.88;100186.72;10433155;28;20057;-81
2022/05/26 03:40:57;;;;;;;2.50;1.00;;;;;;;15.12;48.22;100177.22;10433250;28;20088;-83
2022/05/26 03:46:01;;;;;;;2.30;0.75;;;;;;;15.21;48.13;100187.09;10434953;28;20072;-83
2022/05/26 03:51:13;;;;;;;2.85;1.10;;;;;;;15.29;48.31;100194.44;10432422;28;20056;-83
2022/05/26 03:56:18;;;;;;;2.00;0.95;;;;;;;15.37;47.77;100192.06;10451025;28;20057;-83
2022/05/26 04:01:22;;;;;;;4.22;1.10;;;;;;;15.33;47.97;100202.00;10433281;28;21033;-83
2022/05/26 04:06:27;;;;;;;2.47;0.98;;;;;;;15.27;48.15;100206.88;10433613;28;20061;-83
2022/05/26 04:11:36;;;;;;;3.25;1.15;;;;;;;15.21;48.73;100202.06;10434404;28;20048;-83
2022/05/26 04:16:39;;;;;;;2.75;0.90;;;;;;;15.27;48.29;100206.88;10435034;28;20115;-83
2022/05/26 04:22:15;;;;;;;2.15;1.10;;;;;;;15.48;48.32;100220.25;10434240;28;20498;-84
2022/05/26 04:27:03;;;;;;;3.10;1.10;;;;;;;18.99;41.93;100222.56;10432084;28;20893;-83
2022/05/26 04:32:06;;;;;;;3.35;0.88;;;;;;;18.99;41.44;100227.88;10434171;28;20118;-83
2022/05/26 04:37:11;;;;;;;1.98;0.80;;;;;;;18.67;41.96;100235.22;10434837;28;20083;-84
2022/05/26 04:42:14;;;;;;;2.83;1.00;;;;;;;17.75;43.48;100235.34;10432732;28;20099;-82
2022/05/26 04:47:17;;;;;;;2.33;0.90;;;;;;;17.16;44.88;100245.56;10432342;28;20075;-82
2022/05/26 04:52:21;;;;;;;1.88;1.00;;;;;;;16.94;45.39;100248.28;10435137;28;20099;-82
2022/05/26 04:57:25;;;;;;;2.05;1.00;;;;;;;16.70;46.18;100247.59;10435858;28;20109;-82
2022/05/26 05:02:29;;;;;;;1.20;0.85;;;;;;;16.61;46.28;100249.16;10434275;28;20501;-82
2022/05/26 05:07:38;;;;;;;4.25;1.10;;;;;;;16.76;46.77;100257.69;10430365;28;20080;-82
2022/05/26 05:12:40;;;;;;;3.60;1.00;;;;;;;16.71;46.44;100265.16;10434853;28;20460;-83
2022/05/26 05:17:42;;;;;;;1.38;0.80;;;;;;;16.79;47.00;100273.28;10434724;28;20857;-82
2022/05/26 05:22:57;;;;;;;2.60;0.90;;;;;;;17.18;46.03;100280.63;10434806;28;20045;-84
2022/05/26 05:28:09;;;;;;;2.65;1.00;;;;;;;17.32;45.68;100275.09;10432715;28;20057;-81
2022/05/26 05:33:15;;;;;;;4.43;0.93;;;;;;;17.40;45.95;100277.13;10437683;28;20106;-84
2022/05/26 05:38:17;;;;;;;2.10;1.00;;;;;;;17.74;44.89;100284.78;10442971;28;20122;-84
2022/05/26 05:43:19;;;;;;;3.42;1.05;;;;;;;17.79;44.98;100284.38;10451653;28;20115;-83
2022/05/26 05:48:21;;;;;;;2.08;0.90;;;;;;;17.85;44.92;100286.53;10444037;28;20597;-83
2022/05/26 05:53:24;;;;;;;3.88;1.05;;;;;;;17.82;44.88;100284.97;10440951;28;20064;-83
2022/05/26 05:58:26;;;;;;;2.72;1.00;;;;;;;17.77;44.99;100289.78;10454974;28;20078;-84
2022/05/26 06:03:32;;;;;;;1.58;0.98;;;;;;;18.00;44.81;100297.59;10438918;28;20150;-83
2022/05/26 06:08:37;;;;;;;1.77;1.00;;;;;;;18.70;43.56;100298.53;10438644;28;20052;-83
2022/05/26 06:13:39;;;;;;;2.20;0.93;;;;;;;19.26;42.91;100298.81;10439592;28;20049;-83
2022/05/26 06:18:41;;;;;;;2.83;1.05;;;;;;;19.75;41.35;100308.47;10438033;28;20057;-83
2022/05/26 06:23:44;;;;;;;2.33;1.10;;;;;;;20.06;41.51;100307.34;10433522;28;20056;-82
2022/05/26 06:39:30;;;;;;;2.63;1.00;;;;;;;20.81;39.86;100321.38;10436712;28;20544;-82
2022/05/26 06:44:38;;;;;;;2.45;1.10;;;;;;;21.03;39.36;100326.31;10437466;28;20465;-81
2022/05/26 06:49:41;;;;;;;3.75;1.23;;;;;;;20.91;39.28;100329.31;10451049;28;20076;-79
2022/05/26 06:54:46;;;;;;;5.95;1.38;;;;;;;20.23;40.36;100335.84;10438476;28;20056;-79
2022/05/26 06:59:48;;;;;;;3.83;1.17;;;;;;;19.59;41.81;100342.69;10439668;28;20786;-81
2022/05/26 07:04:51;;;;;;;3.50;1.20;;;;;;;19.54;41.47;100352.91;10436083;28;20088;-81
2022/05/26 07:09:56;;;;;;;3.78;1.20;;;;;;;19.18;41.81;100352.56;10448064;28;20590;-81
2022/05/26 07:14:58;;;;;;;3.10;1.30;;;;;;;19.62;41.50;100366.31;10434777;28;20344;-81
2022/05/26 07:20:00;;;;;;;2.95;1.20;;;;;;;20.00;40.72;100363.69;10435584;28;20502;-81
2022/05/26 07:25:03;;;;;;;3.50;1.17;;;;;;;20.39;40.07;100361.78;10432320;28;20652;-80
2022/05/26 07:30:07;;;;;;;3.85;1.40;;;;;;;20.95;39.16;100358.13;10431733;28;20057;-81
2022/05/26 07:35:10;;;;;;;3.25;1.17;;;;;;;21.06;38.21;100352.63;10434101;28;20465;-81
2022/05/26 07:45:32;;;;;;;4.00;1.50;;;;;;;22.76;35.75;100354.94;10433144;28;20527;-80
2022/05/26 07:50:34;;;;;;;2.92;1.40;;;;;;;24.37;33.23;100362.50;10432941;28;20102;-80
2022/05/26 07:55:38;;;;;;;3.88;1.40;;;;;;;25.61;31.08;100357.97;10431994;28;20048;-80
2022/05/26 08:00:41;;;;;;;2.88;1.30;;;;;;;25.99;30.21;100355.41;10431117;28;20501;-80
2022/05/26 08:05:44;;;;;;;3.78;1.30;;;;;;;27.11;29.25;100356.91;10429553;28;20053;-81
2022/05/26 08:10:46;;;;;;;3.70;1.35;;;;;;;25.99;30.03;100366.13;10432074;28;20083;-81
2022/05/26 08:15:49;;;;;;;5.32;1.30;;;;;;;25.58;30.41;100376.25;10431634;28;20077;-81
2022/05/26 08:20:51;;;;;;;3.20;1.20;;;;;;;23.04;33.68;100390.28;10427708;28;20429;-79
2022/05/26 08:25:53;;;;;;;4.25;1.40;;;;;;;21.61;36.16;100401.31;10423532;28;20041;-79
2022/05/26 08:30:55;;;;;;;4.00;1.30;;;;;;;20.64;37.90;100414.38;10419784;28;20107;-79
2022/05/26 08:36:13;;;;;;;5.45;1.30;;;;;;;20.26;39.21;100410.75;10427554;28;20132;-79
2022/05/26 08:41:20;;;;;;;4.70;1.30;;;;;;;20.16;39.65;100412.59;10424244;28;20571;-78
2022/05/26 08:46:22;;;;;;;5.45;1.27;;;;;;;20.32;39.51;100427.09;10422108;28;20045;-79
2022/05/26 08:51:48;;;;;;;5.15;1.42;;;;;;;21.24;38.21;100418.31;10418893;28;20053;-78
2022/05/26 08:56:52;;;;;;;5.47;1.33;;;;;;;21.27;37.83;100426.00;10420570;28;20079;-78
2022/05/26 09:01:57;;;;;;;3.38;1.33;;;;;;;22.19;37.25;100423.00;10426011;28;20083;-79
2022/05/26 09:17:43;;;;;;;7.40;1.50;;;;;;;22.52;36.11;100437.44;10431565;28;20099;-78
2022/05/26 09:22:46;;;;;;;3.92;1.33;;;;;;;21.95;36.51;100452.06;10430687;28;20072;-79
2022/05/26 09:27:50;;;;;;;7.00;1.60;;;;;;;21.94;37.10;100450.41;10433332;28;20106;-79
2022/05/26 09:32:54;;;;;;;4.63;1.42;;;;;;;21.26;37.76;100456.25;10433342;28;20079;-78
2022/05/26 09:38:00;;;;;;;5.45;1.55;;;;;;;21.26;37.53;100453.59;10434399;28;20494;-79
2022/05/26 09:43:17;;;;;;;3.92;1.80;;;;;;;22.68;35.65;100456.22;10431145;28;20166;-78
2022/05/26 09:48:36;;;;;;;4.55;1.63;;;;;;;24.58;33.08;100451.84;10429711;28;20055;-79
2022/05/26 09:53:42;;;;;;;6.15;1.60;;;;;;;25.24;30.65;100458.75;10428968;28;20115;-78
2022/05/26 09:58:44;;;;;;;4.65;1.50;;;;;;;25.36;31.17;100460.91;10431694;28;20067;-79
2022/05/26 10:04:23;;;;;;;5.28;1.50;;;;;;;24.88;31.06;100471.72;10426304;28;20570;-79
2022/05/26 10:09:41;;;;;;;5.50;1.50;;;;;;;24.43;32.55;100466.09;10410517;28;20137;-79
2022/05/26 10:14:59;;;;;;;4.63;1.50;;;;;;;25.57;29.81;100466.50;10413139;28;21060;-79
2022/05/26 10:20:38;;;;;;;4.30;1.52;;;;;;;25.37;30.47;100454.53;10421227;28;20508;-79
2022/05/26 10:25:56;;;;;;;4.67;1.67;;;;;;;25.15;30.82;100457.09;10452772;28;20136;-81
2022/05/26 10:31:21;;;;;;;4.90;1.60;;;;;;;25.27;30.31;100458.41;10431283;28;20056;-75
2022/05/26 10:36:51;;;;;;;3.55;1.50;;;;;;;24.64;31.33;100461.03;10428328;28;20078;-76
2022/05/26 10:42:03;;;;;;;4.13;1.50;;;;;;;24.28;31.73;100472.09;10421370;28;20057;-75
2022/05/26 10:47:17;;;;;;;3.78;1.40;;;;;;;24.10;31.44;100475.91;10430298;28;20128;-75
2022/05/26 10:52:29;;;;;;;5.47;1.65;;;;;;;23.82;32.45;100471.84;10428304;28;20457;-75
2022/05/26 10:58:00;;;;;;;4.47;1.50;;;;;;;23.33;33.24;100473.47;10427982;28;20106;-76
2022/05/26 11:03:19;;;;;;;4.40;1.38;;;;;;;22.70;34.67;100463.06;10429313;28;20059;-75
2022/05/26 11:08:31;;;;;;;3.90;1.65;;;;;;;22.37;35.67;100473.66;10434308;28;20060;-75
2022/05/26 11:13:59;;;;;;;5.50;1.63;;;;;;;22.62;35.65;100468.34;10444062;28;20053;-76
2022/05/26 11:19:28;;;;;;;4.25;1.48;;;;;;;22.70;34.51;100460.41;10428329;28;20138;-75
2022/05/26 11:24:30;;;;;;;3.80;1.55;;;;;;;22.72;35.10;100452.22;10429130;28;20556;-75
2022/05/26 11:29:38;;;;;;;6.35;1.85;;;;;;;22.66;35.22;100458.19;10423299;28;20048;-76
2022/05/26 11:40:11;;;;;;;5.35;2.00;;;;;;;23.24;34.39;100453.06;10423277;28;20088;-76
2022/05/26 11:45:13;;;;;;;4.25;1.50;;;;;;;23.48;34.21;100451.38;10425526;28;20140;-74
2022/05/26 11:50:36;;;;;;;5.68;2.03;;;;;;;23.35;34.47;100450.13;10424729;28;20136;-74
2022/05/26 11:55:48;;;;;;;7.25;1.77;;;;;;;23.73;32.88;100448.75;10421966;28;20048;-74
2022/05/26 12:01:31;;;;;;;3.67;1.60;;;;;;;23.36;32.63;100446.44;10423934;28;20096;-75
2022/05/26 12:06:51;;;;;;;4.07;1.50;;;;;;;23.15;32.85;100438.00;10422530;28;20157;-76
2022/05/26 12:12:02;;;;;;;4.70;1.63;;;;;;;23.23;32.96;100435.38;10423601;28;20943;-76
2022/05/26 12:17:58;;;;;;;4.72;1.40;;;;;;;23.65;33.05;100436.22;10427104;28;20102;-76
2022/05/26 12:23:03;;;;;;;5.78;1.60;;;;;;;23.70;32.53;100441.91;10349228;28;20510;-76
2022/05/26 12:28:14;;;;;;;4.47;1.73;;;;;;;23.23;33.22;100435.38;10424270;28;20045;-76
2022/05/26 12:33:19;;;;;;;4.35;1.90;;;;;;;23.42;32.80;100443.16;10419696;28;20048;-76
2022/05/26 12:38:32;;;;;;;6.18;1.50;;;;;;;23.67;32.47;100433.38;10417677;28;20052;-76
2022/05/26 12:43:55;;;;;;;5.35;1.77;;;;;;;23.46;31.46;100439.16;10423654;28;20081;-76
2022/05/26 12:49:12;;;;;;;6.20;1.40;;;;;;;23.44;32.12;100441.16;10427508;28;21118;-76
2022/05/26 12:54:19;;;;;;;3.80;1.38;;;;;;;23.96;31.10;100423.91;10427735;28;20468;-77
2022/05/26 12:59:26;;;;;;;3.22;1.33;;;;;;;23.76;31.43;100421.75;10428272;28;20136;-76
2022/05/26 13:04:34;;;;;;;5.03;1.50;;;;;;;23.41;31.80;100420.97;10426851;28;20057;-76
2022/05/26 13:09:40;;;;;;;4.03;1.60;;;;;;;23.24;32.33;100423.72;10425269;28;20048;-76
2022/05/26 13:14:49;;;;;;;4.60;1.60;;;;;;;23.68;32.16;100419.88;10429386;28;20087;-76
2022/05/26 13:19:54;;;;;;;4.03;1.45;;;;;;;23.81;31.95;100422.91;10427937;28;20075;-76
2022/05/26 13:24:59;;;;;;;5.10;1.67;;;;;;;23.99;31.89;100415.59;10430057;28;20203;-76
2022/05/26 13:35:29;;;;;;;5.72;1.73;;;;;;;24.23;31.50;100412.09;10407817;28;20534;-76
2022/05/26 13:40:31;;;;;;;4.63;1.73;;;;;;;24.43;31.32;100415.28;10384292;28;1203045;-75
2022/05/26 13:45:35;;;;;;;5.47;1.58;;;;;;;24.37;30.61;100413.28;10429056;28;20136;-75
2022/05/26 13:50:46;;;;;;;5.38;1.77;;;;;;;23.92;31.43;100405.72;10429075;28;20049;-74
2022/05/26 13:55:49;;;;;;;5.47;1.83;;;;;;;23.64;32.21;100407.84;10427044;28;20052;-74
2022/05/26 14:01:05;;;;;;;6.60;2.03;;;;;;;23.77;32.56;100400.19;10423324;28;20194;-74
2022/05/26 14:06:30;;;;;;;5.45;1.67;;;;;;;23.86;32.48;100390.38;10428926;28;20041;-75
2022/05/26 14:11:45;;;;;;;3.17;1.42;;;;;;;23.86;31.92;100385.84;10425952;28;20403;-75
2022/05/26 14:16:48;;;;;;;5.75;1.70;;;;;;;23.89;31.99;100384.69;10425559;28;20553;-75
2022/05/26 14:21:51;;;;;;;8.63;2.00;;;;;;;23.44;32.87;100382.44;10430721;28;20045;-75
2022/05/26 14:27:08;;;;;;;3.75;1.45;;;;;;;23.40;33.34;100378.38;10427915;28;20088;-75
2022/05/26 14:32:14;;;;;;;6.82;2.00;;;;;;;23.92;33.05;100374.47;10428327;28;20490;-76
2022/05/26 14:37:18;;;;;;;5.30;1.63;;;;;;;24.15;32.43;100351.47;10427966;28;20355;-75
2022/05/26 14:42:32;;;;;;;6.13;1.65;;;;;;;23.77;32.29;100344.09;10427760;28;20649;-75
2022/05/26 14:47:34;;;;;;;5.43;1.90;;;;;;;23.68;32.59;100339.75;10425488;28;20048;-75
2022/05/26 14:52:38;;;;;;;7.55;1.50;;;;;;;23.98;31.85;100320.38;10425116;28;20052;-75
2022/05/26 14:57:41;;;;;;;5.65;1.77;;;;;;;23.74;31.88;100328.41;10426255;28;20136;-76
2022/05/26 15:02:44;;;;;;;6.18;1.75;;;;;;;23.66;32.58;100325.72;10428111;28;20052;-75
2022/05/26 15:07:46;;;;;;;9.95;1.98;;;;;;;23.78;32.24;100323.59;10431262;28;20049;-76
2022/05/26 15:12:56;;;;;;;5.00;1.50;;;;;;;23.67;31.56;100319.41;10434244;28;20143;-75
2022/05/26 15:17:58;;;;;;;6.00;1.60;;;;;;;23.56;32.15;100322.38;10445413;28;20033;-75
2022/05/26 15:23:00;;;;;;;5.88;1.90;;;;;;;23.71;32.00;100323.41;10428013;28;20139;-74
2022/05/26 15:28:02;;;;;;;5.82;2.00;;;;;;;23.66;32.04;100320.38;10422416;28;20106;-75
2022/05/26 15:33:04;;;;;;;5.00;1.60;;;;;;;23.51;32.54;100327.41;10420467;28;20057;-75
2022/05/26 15:38:05;;;;;;;5.03;1.90;;;;;;;23.48;32.24;100315.22;10425081;28;20138;-75
2022/05/26 15:43:09;;;;;;;6.60;1.83;;;;;;;23.73;32.00;100313.41;10423336;28;20052;-76
2022/05/26 15:48:13;;;;;;;5.45;1.63;;;;;;;23.65;32.26;100316.06;10422259;28;20091;-76
2022/05/26 15:53:15;;;;;;;5.75;1.70;;;;;;;23.86;31.85;100302.22;10427729;28;20045;-75
2022/05/26 15:58:19;;;;;;;6.20;1.60;;;;;;;23.69;31.88;100309.38;10426473;28;20507;-80
2022/05/26 16:03:24;;;;;;;7.13;1.80;;;;;;;23.86;31.89;100299.53;10428207;28;20060;-81
2022/05/26 16:08:27;;;;;;;4.80;1.70;;;;;;;24.13;31.74;100304.53;10429774;28;20089;-80
2022/05/26 16:13:29;;;;;;;4.93;1.70;;;;;;;24.10;31.66;100304.88;10433118;28;20049;-80
2022/05/26 16:18:34;;;;;;;4.00;1.65;;;;;;;23.99;31.41;100297.19;10429048;28;20118;-80
2022/05/26 16:23:47;;;;;;;6.40;1.50;;;;;;;24.14;31.46;100290.19;10427515;28;20057;-79
2022/05/26 16:28:49;;;;;;;5.80;1.90;;;;;;;23.83;31.55;100289.19;10430657;28;20132;-80
2022/05/26 16:33:54;;;;;;;4.32;1.60;;;;;;;23.36;32.27;100289.81;10432038;28;20057;-80
2022/05/26 16:38:58;;;;;;;4.95;1.63;;;;;;;23.42;32.47;100293.66;10427329;28;20236;-80
2022/05/26 16:44:05;;;;;;;4.13;1.58;;;;;;;23.54;31.83;100284.34;10436713;28;20056;-80
2022/05/26 16:49:09;;;;;;;5.75;1.73;;;;;;;23.30;32.22;100287.78;10429753;28;20049;-81
2022/05/26 16:54:27;;;;;;;5.50;1.77;;;;;;;23.12;32.54;100286.25;10432621;28;20510;-81
2022/05/26 16:59:30;;;;;;;4.78;1.67;;;;;;;23.09;32.96;100287.41;10431605;28;20495;-81
2022/05/26 17:04:36;;;;;;;4.47;1.60;;;;;;;22.92;33.30;100284.88;10440606;28;20049;-81
2022/05/26 17:09:38;;;;;;;5.47;1.77;;;;;;;22.91;33.44;100289.34;10432442;28;20138;-79
2022/05/26 17:25:21;;;;;;;6.15;1.48;;;;;;;22.42;34.27;100279.44;10432720;28;20134;-80
2022/05/26 17:30:27;;;;;;;3.75;1.80;;;;;;;22.35;34.55;100284.56;10434774;28;20867;-79
2022/05/26 17:35:30;;;;;;;5.13;2.20;;;;;;;22.23;35.03;100283.16;10437000;28;20049;-79
2022/05/26 17:40:34;;;;;;;5.22;1.80;;;;;;;22.18;35.00;100269.50;10437633;28;21179;-80
2022/05/26 17:45:38;;;;;;;6.32;2.25;;;;;;;22.11;35.33;100271.09;10436654;28;20099;-81
2022/05/26 17:50:48;;;;;;;4.50;1.80;;;;;;;22.07;35.61;100267.09;10438929;28;20453;-81
2022/05/26 17:55:52;;;;;;;5.47;1.90;;;;;;;21.99;35.38;100261.66;10424729;28;20041;-81
2022/05/26 18:01:00;;;;;;;5.82;1.90;;;;;;;21.85;35.50;100264.91;10435912;28;20052;-81
2022/05/26 18:06:06;;;;;;;4.95;1.80;;;;;;;21.68;35.98;100263.94;10436306;28;20145;-82
2022/05/26 18:11:11;;;;;;;3.47;1.50;;;;;;;21.57;36.26;100266.03;10439638;28;20558;-81
2022/05/26 18:16:20;;;;;;;5.65;2.03;;;;;;;21.41;36.40;100260.56;10432348;28;20053;-81
2022/05/26 18:21:30;;;;;;;5.70;1.63;;;;;;;21.24;36.99;100264.00;10438743;28;20065;-82
2022/05/26 18:26:32;;;;;;;5.40;1.75;;;;;;;21.08;37.33;100264.69;10437035;28;20100;-82
2022/05/26 18:31:38;;;;;;;4.10;1.70;;;;;;;20.94;37.52;100258.06;10439272;28;20093;-82
2022/05/26 18:36:50;;;;;;;6.00;1.60;;;;;;;20.66;37.94;100268.88;10438072;28;20084;-82
2022/05/26 18:41:53;;;;;;;6.20;1.73;;;;;;;20.62;38.18;100262.19;10438671;28;20917;-82
2022/05/26 18:46:56;;;;;;;6.55;1.73;;;;;;;20.47;38.03;100268.91;10438264;28;20045;-82
2022/05/26 18:52:00;;;;;;;5.15;1.75;;;;;;;20.44;38.48;100270.03;10443765;28;20059;-82
2022/05/26 18:57:01;;;;;;;5.65;1.65;;;;;;;20.38;38.92;100265.31;10436106;28;20049;-82
2022/05/26 19:02:07;;;;;;;5.50;1.70;;;;;;;20.31;38.87;100261.59;10437154;28;20072;-80
2022/05/26 19:07:11;;;;;;;6.40;2.10;;;;;;;20.21;39.09;100264.25;10448214;28;20048;-80
2022/05/26 19:12:16;;;;;;;5.32;1.80;;;;;;;20.16;39.52;100284.25;10436274;28;20053;-79
2022/05/26 19:17:23;;;;;;;7.28;2.00;;;;;;;20.03;39.72;100294.38;10452551;28;20041;-80
2022/05/26 19:22:25;;;;;;;3.78;1.52;;;;;;;19.95;40.02;100294.25;10480263;28;20074;-80
2022/05/26 19:27:29;;;;;;;5.57;1.85;;;;;;;19.86;40.16;100295.94;10446476;28;20668;-80
2022/05/26 19:32:33;;;;;;;6.55;1.85;;;;;;;19.81;40.55;100299.94;10439305;28;20061;-80
2022/05/26 19:37:35;;;;;;;6.28;1.80;;;;;;;19.68;41.06;100307.38;10441855;28;20105;-80
2022/05/26 19:42:38;;;;;;;5.10;1.67;;;;;;;19.64;41.21;100303.31;10457565;28;20052;-80
2022/05/26 19:47:40;;;;;;;5.78;1.70;;;;;;;19.44;41.21;100313.06;10441782;28;20637;-80
2022/05/26 19:52:43;;;;;;;5.40;1.60;;;;;;;19.43;41.58;100312.25;10440384;28;20049;-80
2022/05/26 19:57:49;;;;;;;5.28;1.75;;;;;;;19.33;41.75;100322.03;10434159;28;20049;-80
2022/05/26 20:02:54;;;;;;;4.68;1.75;;;;;;;19.25;42.42;100327.19;10442150;28;20048;-80
2022/05/26 20:07:57;;;;;;;6.45;2.00;;;;;;;19.15;42.52;100334.28;10434439;28;20048;-80
2022/05/26 20:12:59;;;;;;;4.10;1.65;;;;;;;19.02;42.56;100349.59;10429141;28;20570;-80
2022/05/26 20:18:01;;;;;;;7.72;1.65;;;;;;;18.91;42.94;100343.53;10432446;28;20048;-80
2022/05/26 20:23:04;;;;;;;6.35;1.90;;;;;;;18.98;42.88;100350.78;10432190;28;20048;-80
2022/05/26 20:33:28;;;;;;;5.50;1.70;;;;;;;18.91;43.09;100362.91;10435091;28;20521;-80
2022/05/26 20:38:34;;;;;;;6.38;1.70;;;;;;;18.93;43.62;100360.13;10434064;28;20115;-80
2022/05/26 20:43:36;;;;;;;5.47;1.65;;;;;;;18.95;43.42;100358.19;10429199;28;20065;-80
2022/05/26 20:48:50;;;;;;;4.38;1.70;;;;;;;18.92;43.72;100356.63;10434192;28;20049;-80
2022/05/26 20:53:52;;;;;;;6.15;1.73;;;;;;;18.87;43.76;100364.13;10434152;28;20053;-81
2022/05/26 20:58:56;;;;;;;7.45;1.83;;;;;;;18.91;43.63;100365.53;10434025;28;20052;-80
2022/05/26 21:03:58;;;;;;;4.57;1.77;;;;;;;18.84;43.35;100364.41;10431563;28;20057;-81
2022/05/26 21:09:03;;;;;;;9.15;2.10;;;;;;;18.84;43.90;100363.56;10438133;28;20049;-81
2022/05/26 21:14:05;;;;;;;8.98;1.92;;;;;;;18.80;44.02;100360.34;10439988;28;20459;-81
2022/05/26 21:19:10;;;;;;;6.88;1.65;;;;;;;18.73;44.33;100361.84;10442444;28;20124;-80
2022/05/26 21:24:12;;;;;;;5.50;1.80;;;;;;;18.55;44.56;100363.44;10437695;28;20110;-80
2022/05/26 21:29:31;;;;;;;7.40;1.90;;;;;;;18.49;44.91;100366.63;10440091;28;20114;-81
2022/05/26 21:34:34;;;;;;;5.18;1.58;;;;;;;18.56;44.70;100362.50;10441828;28;20049;-81
2022/05/26 21:39:39;;;;;;;5.68;1.63;;;;;;;18.64;44.83;100362.66;10435812;28;20451;-80
2022/05/26 21:44:43;;;;;;;5.30;1.83;;;;;;;18.65;44.66;100359.88;10439248;28;20110;-80
2022/05/26 21:49:46;;;;;;;5.03;1.50;;;;;;;18.60;44.73;100359.44;10439871;28;20053;-81
2022/05/26 21:54:51;;;;;;;6.30;1.83;;;;;;;18.73;45.00;100361.03;10440766;28;20517;-80
2022/05/26 21:59:54;;;;;;;8.05;1.95;;;;;;;18.53;45.18;100354.78;10438557;28;20128;-80
2022/05/26 22:15:40;;;;;;;3.05;1.45;;;;;;;18.51;44.88;100354.09;10439373;28;20502;-80
2022/05/26 22:20:50;;;;;;;5.40;1.73;;;;;;;18.39;45.19;100355.97;10437379;28;20056;-81
2022/05/26 22:25:53;;;;;;;6.53;1.70;;;;;;;18.42;45.25;100358.34;10438690;28;20081;-81
2022/05/26 22:30:55;;;;;;;7.45;1.65;;;;;;;18.39;44.96;100357.78;10436769;28;20077;-80
2022/05/26 22:35:58;;;;;;;4.10;1.40;;;;;;;18.26;45.57;100352.69;10437738;28;20049;-80
2022/05/26 22:41:00;;;;;;;4.95;1.80;;;;;;;18.10;46.06;100349.63;10434864;28;20081;-80
2022/05/26 22:46:02;;;;;;;5.28;1.65;;;;;;;18.10;46.06;100352.28;10437415;28;20137;-80
2022/05/26 22:51:05;;;;;;;5.18;1.60;;;;;;;17.96;46.22;100352.59;10438839;28;20060;-80
2022/05/26 22:56:08;;;;;;;6.90;1.98;;;;;;;18.04;46.68;100352.78;10437190;28;20049;-81
2022/05/26 23:01:10;;;;;;;4.35;1.50;;;;;;;18.16;46.22;100359.69;10437797;28;20111;-80
2022/05/26 23:06:12;;;;;;;4.30;1.50;;;;;;;18.25;46.17;100344.88;10435392;28;20105;-80
2022/05/26 23:11:14;;;;;;;4.97;1.65;;;;;;;18.31;45.92;100339.06;10437630;28;20130;-80
2022/05/26 23:16:19;;;;;;;3.78;1.65;;;;;;;18.24;45.94;100340.56;10438089;28;20080;-80
2022/05/26 23:21:25;;;;;;;4.63;1.52;;;;;;;18.26;46.39;100336.81;10443576;28;20053;-80
2022/05/26 23:26:30;;;;;;;4.60;1.55;;;;;;;18.25;46.01;100329.84;10446906;28;20098;-79
2022/05/26 23:31:39;;;;;;;4.68;1.55;;;;;;;18.25;46.32;100323.69;10446417;28;20052;-80
2022/05/26 23:36:41;;;;;;;6.43;1.55;;;;;;;18.23;46.35;100330.94;10438735;28;20044;-80
2022/05/26 23:47:03;;;;;;;4.22;1.60;;;;;;;18.13;46.31;100319.41;10436648;28;20081;-80
2022/05/26 23:52:05;;;;;;;6.95;1.75;;;;;;;18.18;46.58;100310.09;10437641;28;20098;-79
